sensor_id;sensor_type;location;lat;lon;timestamp;P1;durP1;ratioP1;P2;durP2;ratioP2
20842;SDS011;26719;51.440;-2.574;2023-05-10T00:02:13;0.00;;;0.00;;
20842;SDS011;26719;51.440;-2.574;2023-05-10T00:04:39;0.00;;;0.00;;
20842;SDS011;26719;51.440;-2.574;2023-05-10T00:07:05;0.00;;;0.00;;
20842;SDS011;26719;51.440;-2.574;2023-05-10T00:09:31;0.00;;;0.00;;
20842;SDS011;26719;51.440;-2.574;2023-05-10T00:11:57;0.00;;;0.00;;
20842;SDS011;26719;51.440;-2.574;2023-05-10T00:14:23;0.00;;;0.00;;
20842;SDS011;26719;51.440;-2.574;2023-05-10T00:16:49;0.00;;;0.00;;
20842;SDS011;26719;51.440;-2.574;2023-05-10T00:19:16;0.00;;;0.00;;
20842;SDS011;26719;51.440;-2.574;2023-05-10T00:21:42;0.00;;;0.00;;
20842;SDS011;26719;51.440;-2.574;2023-05-10T00:24:08;0.00;;;0.00;;
20842;SDS011;26719;51.440;-2.574;2023-05-10T00:26:34;0.00;;;0.00;;
20842;SDS011;26719;51.440;-2.574;2023-05-10T00:29:00;0.00;;;0.00;;
20842;SDS011;26719;51.440;-2.574;2023-05-10T00:31:26;0.00;;;0.00;;
20842;SDS011;26719;51.440;-2.574;2023-05-10T00:33:52;0.00;;;0.00;;
20842;SDS011;26719;51.440;-2.574;2023-05-10T00:36:18;0.00;;;0.00;;
20842;SDS011;26719;51.440;-2.574;2023-05-10T00:38:44;0.00;;;0.00;;
20842;SDS011;26719;51.440;-2.574;2023-05-10T00:41:10;0.00;;;0.00;;
20842;SDS011;26719;51.440;-2.574;2023-05-10T00:43:36;0.03;;;0.03;;
20842;SDS011;26719;51.440;-2.574;2023-05-10T00:46:03;0.00;;;0.00;;
20842;SDS011;26719;51.440;-2.574;2023-05-10T00:48:29;0.00;;;0.00;;
20842;SDS011;26719;51.440;-2.574;2023-05-10T00:50:55;0.00;;;0.00;;
20842;SDS011;26719;51.440;-2.574;2023-05-10T00:53:24;0.00;;;0.00;;
20842;SDS011;26719;51.440;-2.574;2023-05-10T00:55:50;0.00;;;0.00;;
20842;SDS011;26719;51.440;-2.574;2023-05-10T00:58:16;0.00;;;0.00;;
20842;SDS011;26719;51.440;-2.574;2023-05-10T01:00:42;0.00;;;0.00;;
20842;SDS011;26719;51.440;-2.574;2023-05-10T01:03:10;0.00;;;0.00;;
20842;SDS011;26719;51.440;-2.574;2023-05-10T01:05:36;0.00;;;0.00;;
20842;SDS011;26719;51.440;-2.574;2023-05-10T01:08:02;0.00;;;0.00;;
20842;SDS011;26719;51.440;-2.574;2023-05-10T01:10:28;0.00;;;0.00;;
20842;SDS011;26719;51.440;-2.574;2023-05-10T01:12:54;0.00;;;0.00;;
20842;SDS011;26719;51.440;-2.574;2023-05-10T01:15:21;0.00;;;0.00;;
20842;SDS011;26719;51.440;-2.574;2023-05-10T01:17:47;0.00;;;0.00;;
20842;SDS011;26719;51.440;-2.574;2023-05-10T01:20:14;0.07;;;0.07;;
20842;SDS011;26719;51.440;-2.574;2023-05-10T01:22:53;0.00;;;0.00;;
20842;SDS011;26719;51.440;-2.574;2023-05-10T01:25:31;0.00;;;0.00;;
20842;SDS011;26719;51.440;-2.574;2023-05-10T01:33:30;0.00;;;0.00;;
20842;SDS011;26719;51.440;-2.574;2023-05-10T01:36:21;0.00;;;0.00;;
20842;SDS011;26719;51.440;-2.574;2023-05-10T01:38:52;0.00;;;0.00;;
20842;SDS011;26719;51.440;-2.574;2023-05-10T01:41:28;0.00;;;0.00;;
20842;SDS011;26719;51.440;-2.574;2023-05-10T01:46:37;0.00;;;0.00;;
20842;SDS011;26719;51.440;-2.574;2023-05-10T01:49:25;0.00;;;0.00;;
20842;SDS011;26719;51.440;-2.574;2023-05-10T01:51:52;0.00;;;0.00;;
20842;SDS011;26719;51.440;-2.574;2023-05-10T01:54:22;0.00;;;0.00;;
20842;SDS011;26719;51.440;-2.574;2023-05-10T01:56:50;0.00;;;0.00;;
20842;SDS011;26719;51.440;-2.574;2023-05-10T01:59:18;0.00;;;0.00;;
20842;SDS011;26719;51.440;-2.574;2023-05-10T02:01:45;0.00;;;0.00;;
20842;SDS011;26719;51.440;-2.574;2023-05-10T02:04:13;0.00;;;0.00;;
20842;SDS011;26719;51.440;-2.574;2023-05-10T02:06:41;0.00;;;0.00;;
20842;SDS011;26719;51.440;-2.574;2023-05-10T02:09:08;0.00;;;0.00;;
20842;SDS011;26719;51.440;-2.574;2023-05-10T02:11:37;0.00;;;0.00;;
20842;SDS011;26719;51.440;-2.574;2023-05-10T02:14:05;0.00;;;0.00;;
20842;SDS011;26719;51.440;-2.574;2023-05-10T02:16:33;0.00;;;0.00;;
20842;SDS011;26719;51.440;-2.574;2023-05-10T02:19:01;0.03;;;0.03;;
20842;SDS011;26719;51.440;-2.574;2023-05-10T02:21:27;0.00;;;0.00;;
20842;SDS011;26719;51.440;-2.574;2023-05-10T02:23:53;0.00;;;0.00;;
20842;SDS011;26719;51.440;-2.574;2023-05-10T02:26:20;0.00;;;0.00;;
20842;SDS011;26719;51.440;-2.574;2023-05-10T02:28:46;0.00;;;0.00;;
20842;SDS011;26719;51.440;-2.574;2023-05-10T02:31:13;0.00;;;0.00;;
20842;SDS011;26719;51.440;-2.574;2023-05-10T02:33:39;0.00;;;0.00;;
20842;SDS011;26719;51.440;-2.574;2023-05-10T02:36:07;0.00;;;0.00;;
20842;SDS011;26719;51.440;-2.574;2023-05-10T02:38:33;0.00;;;0.00;;
20842;SDS011;26719;51.440;-2.574;2023-05-10T02:41:01;0.00;;;0.00;;
20842;SDS011;26719;51.440;-2.574;2023-05-10T02:43:27;0.00;;;0.00;;
20842;SDS011;26719;51.440;-2.574;2023-05-10T02:45:55;0.00;;;0.00;;
20842;SDS011;26719;51.440;-2.574;2023-05-10T02:48:21;0.00;;;0.00;;
20842;SDS011;26719;51.440;-2.574;2023-05-10T02:50:47;0.00;;;0.00;;
20842;SDS011;26719;51.440;-2.574;2023-05-10T02:53:18;0.00;;;0.00;;
20842;SDS011;26719;51.440;-2.574;2023-05-10T02:55:48;0.00;;;0.00;;
20842;SDS011;26719;51.440;-2.574;2023-05-10T02:58:15;0.03;;;0.03;;
20842;SDS011;26719;51.440;-2.574;2023-05-10T03:00:44;0.00;;;0.00;;
20842;SDS011;26719;51.440;-2.574;2023-05-10T03:03:11;0.00;;;0.00;;
20842;SDS011;26719;51.440;-2.574;2023-05-10T03:05:37;0.00;;;0.00;;
20842;SDS011;26719;51.440;-2.574;2023-05-10T03:08:03;0.00;;;0.00;;
20842;SDS011;26719;51.440;-2.574;2023-05-10T03:10:30;0.00;;;0.00;;
20842;SDS011;26719;51.440;-2.574;2023-05-10T03:13:00;0.00;;;0.00;;
20842;SDS011;26719;51.440;-2.574;2023-05-10T03:18:00;0.00;;;0.00;;
20842;SDS011;26719;51.440;-2.574;2023-05-10T03:21:10;0.00;;;0.00;;
20842;SDS011;26719;51.440;-2.574;2023-05-10T03:25:46;0.00;;;0.00;;
20842;SDS011;26719;51.440;-2.574;2023-05-10T03:28:14;0.00;;;0.00;;
20842;SDS011;26719;51.440;-2.574;2023-05-10T03:30:41;0.00;;;0.00;;
20842;SDS011;26719;51.440;-2.574;2023-05-10T03:33:08;0.00;;;0.00;;
20842;SDS011;26719;51.440;-2.574;2023-05-10T03:35:34;0.00;;;0.00;;
20842;SDS011;26719;51.440;-2.574;2023-05-10T03:38:00;0.00;;;0.00;;
20842;SDS011;26719;51.440;-2.574;2023-05-10T03:40:26;0.00;;;0.00;;
20842;SDS011;26719;51.440;-2.574;2023-05-10T03:42:54;0.00;;;0.00;;
20842;SDS011;26719;51.440;-2.574;2023-05-10T03:45:20;0.00;;;0.00;;
20842;SDS011;26719;51.440;-2.574;2023-05-10T03:47:47;0.03;;;0.03;;
20842;SDS011;26719;51.440;-2.574;2023-05-10T03:50:13;0.00;;;0.00;;
20842;SDS011;26719;51.440;-2.574;2023-05-10T03:52:39;0.00;;;0.00;;
20842;SDS011;26719;51.440;-2.574;2023-05-10T03:55:05;0.00;;;0.00;;
20842;SDS011;26719;51.440;-2.574;2023-05-10T03:57:31;0.00;;;0.00;;
20842;SDS011;26719;51.440;-2.574;2023-05-10T03:59:57;0.00;;;0.00;;
20842;SDS011;26719;51.440;-2.574;2023-05-10T04:02:23;0.00;;;0.00;;
20842;SDS011;26719;51.440;-2.574;2023-05-10T04:04:49;0.00;;;0.00;;
20842;SDS011;26719;51.440;-2.574;2023-05-10T04:07:15;0.00;;;0.00;;
20842;SDS011;26719;51.440;-2.574;2023-05-10T04:09:41;0.00;;;0.00;;
20842;SDS011;26719;51.440;-2.574;2023-05-10T04:12:08;0.00;;;0.00;;
20842;SDS011;26719;51.440;-2.574;2023-05-10T04:14:34;0.00;;;0.00;;
20842;SDS011;26719;51.440;-2.574;2023-05-10T04:17:00;0.00;;;0.00;;
20842;SDS011;26719;51.440;-2.574;2023-05-10T04:19:29;0.07;;;0.07;;
20842;SDS011;26719;51.440;-2.574;2023-05-10T04:21:56;0.00;;;0.00;;
20842;SDS011;26719;51.440;-2.574;2023-05-10T04:24:22;0.00;;;0.00;;
20842;SDS011;26719;51.440;-2.574;2023-05-10T04:26:48;0.00;;;0.00;;
20842;SDS011;26719;51.440;-2.574;2023-05-10T04:29:14;0.00;;;0.00;;
20842;SDS011;26719;51.440;-2.574;2023-05-10T04:31:40;0.00;;;0.00;;
20842;SDS011;26719;51.440;-2.574;2023-05-10T04:34:06;0.00;;;0.00;;
20842;SDS011;26719;51.440;-2.574;2023-05-10T04:36:32;0.10;;;0.10;;
20842;SDS011;26719;51.440;-2.574;2023-05-10T04:39:00;0.00;;;0.00;;
20842;SDS011;26719;51.440;-2.574;2023-05-10T04:41:28;0.00;;;0.00;;
20842;SDS011;26719;51.440;-2.574;2023-05-10T04:43:54;0.10;;;0.10;;
20842;SDS011;26719;51.440;-2.574;2023-05-10T04:46:20;0.00;;;0.00;;
20842;SDS011;26719;51.440;-2.574;2023-05-10T04:48:46;0.00;;;0.00;;
20842;SDS011;26719;51.440;-2.574;2023-05-10T04:51:12;0.00;;;0.00;;
20842;SDS011;26719;51.440;-2.574;2023-05-10T04:53:38;0.00;;;0.00;;
20842;SDS011;26719;51.440;-2.574;2023-05-10T04:56:05;0.00;;;0.00;;
20842;SDS011;26719;51.440;-2.574;2023-05-10T04:58:31;0.00;;;0.00;;
20842;SDS011;26719;51.440;-2.574;2023-05-10T05:01:04;0.00;;;0.00;;
20842;SDS011;26719;51.440;-2.574;2023-05-10T05:03:30;0.00;;;0.00;;
20842;SDS011;26719;51.440;-2.574;2023-05-10T05:05:57;0.00;;;0.00;;
20842;SDS011;26719;51.440;-2.574;2023-05-10T05:08:23;0.00;;;0.00;;
20842;SDS011;26719;51.440;-2.574;2023-05-10T05:10:49;0.00;;;0.00;;
20842;SDS011;26719;51.440;-2.574;2023-05-10T05:13:15;0.00;;;0.00;;
20842;SDS011;26719;51.440;-2.574;2023-05-10T05:15:41;0.00;;;0.00;;
20842;SDS011;26719;51.440;-2.574;2023-05-10T05:18:07;0.00;;;0.00;;
20842;SDS011;26719;51.440;-2.574;2023-05-10T05:20:33;0.00;;;0.00;;
20842;SDS011;26719;51.440;-2.574;2023-05-10T05:23:00;0.00;;;0.00;;
20842;SDS011;26719;51.440;-2.574;2023-05-10T05:25:26;0.00;;;0.00;;
20842;SDS011;26719;51.440;-2.574;2023-05-10T05:27:52;0.00;;;0.00;;
20842;SDS011;26719;51.440;-2.574;2023-05-10T05:30:18;0.00;;;0.00;;
20842;SDS011;26719;51.440;-2.574;2023-05-10T05:32:44;0.10;;;0.10;;
20842;SDS011;26719;51.440;-2.574;2023-05-10T05:35:11;0.00;;;0.00;;
20842;SDS011;26719;51.440;-2.574;2023-05-10T05:37:37;0.00;;;0.00;;
20842;SDS011;26719;51.440;-2.574;2023-05-10T05:40:04;0.00;;;0.00;;
20842;SDS011;26719;51.440;-2.574;2023-05-10T05:42:30;0.00;;;0.00;;
20842;SDS011;26719;51.440;-2.574;2023-05-10T05:44:56;0.00;;;0.00;;
20842;SDS011;26719;51.440;-2.574;2023-05-10T05:47:23;0.00;;;0.00;;
20842;SDS011;26719;51.440;-2.574;2023-05-10T05:49:49;0.00;;;0.00;;
20842;SDS011;26719;51.440;-2.574;2023-05-10T05:52:15;0.00;;;0.00;;
20842;SDS011;26719;51.440;-2.574;2023-05-10T05:54:41;0.00;;;0.00;;
20842;SDS011;26719;51.440;-2.574;2023-05-10T05:57:07;0.00;;;0.00;;
20842;SDS011;26719;51.440;-2.574;2023-05-10T05:59:33;0.00;;;0.00;;
20842;SDS011;26719;51.440;-2.574;2023-05-10T06:01:59;0.00;;;0.00;;
20842;SDS011;26719;51.440;-2.574;2023-05-10T06:04:25;0.03;;;0.03;;
20842;SDS011;26719;51.440;-2.574;2023-05-10T06:06:51;0.00;;;0.00;;
20842;SDS011;26719;51.440;-2.574;2023-05-10T06:09:17;0.00;;;0.00;;
20842;SDS011;26719;51.440;-2.574;2023-05-10T06:11:43;0.00;;;0.00;;
20842;SDS011;26719;51.440;-2.574;2023-05-10T06:14:09;0.00;;;0.00;;
20842;SDS011;26719;51.440;-2.574;2023-05-10T06:16:36;0.00;;;0.00;;
20842;SDS011;26719;51.440;-2.574;2023-05-10T06:19:02;0.00;;;0.00;;
20842;SDS011;26719;51.440;-2.574;2023-05-10T06:21:28;0.00;;;0.00;;
20842;SDS011;26719;51.440;-2.574;2023-05-10T06:23:55;0.00;;;0.00;;
20842;SDS011;26719;51.440;-2.574;2023-05-10T06:26:21;0.00;;;0.00;;
20842;SDS011;26719;51.440;-2.574;2023-05-10T06:28:47;0.00;;;0.00;;
20842;SDS011;26719;51.440;-2.574;2023-05-10T06:31:13;0.00;;;0.00;;
20842;SDS011;26719;51.440;-2.574;2023-05-10T06:33:39;0.00;;;0.00;;
20842;SDS011;26719;51.440;-2.574;2023-05-10T06:36:05;0.00;;;0.00;;
20842;SDS011;26719;51.440;-2.574;2023-05-10T06:38:31;0.00;;;0.00;;
20842;SDS011;26719;51.440;-2.574;2023-05-10T06:40:58;0.00;;;0.00;;
20842;SDS011;26719;51.440;-2.574;2023-05-10T06:43:24;0.10;;;0.10;;
20842;SDS011;26719;51.440;-2.574;2023-05-10T06:45:51;0.00;;;0.00;;
20842;SDS011;26719;51.440;-2.574;2023-05-10T06:48:17;0.00;;;0.00;;
20842;SDS011;26719;51.440;-2.574;2023-05-10T06:50:46;0.00;;;0.00;;
20842;SDS011;26719;51.440;-2.574;2023-05-10T06:53:12;0.00;;;0.00;;
20842;SDS011;26719;51.440;-2.574;2023-05-10T06:55:38;0.00;;;0.00;;
20842;SDS011;26719;51.440;-2.574;2023-05-10T06:58:04;0.00;;;0.00;;
20842;SDS011;26719;51.440;-2.574;2023-05-10T07:00:31;0.00;;;0.00;;
20842;SDS011;26719;51.440;-2.574;2023-05-10T07:02:57;0.00;;;0.00;;
20842;SDS011;26719;51.440;-2.574;2023-05-10T07:05:23;0.00;;;0.00;;
20842;SDS011;26719;51.440;-2.574;2023-05-10T07:07:49;0.00;;;0.00;;
20842;SDS011;26719;51.440;-2.574;2023-05-10T07:10:16;0.00;;;0.00;;
20842;SDS011;26719;51.440;-2.574;2023-05-10T07:12:42;0.00;;;0.00;;
20842;SDS011;26719;51.440;-2.574;2023-05-10T07:15:08;0.03;;;0.03;;
20842;SDS011;26719;51.440;-2.574;2023-05-10T07:17:35;0.00;;;0.00;;
20842;SDS011;26719;51.440;-2.574;2023-05-10T07:20:01;0.00;;;0.00;;
20842;SDS011;26719;51.440;-2.574;2023-05-10T07:22:28;0.10;;;0.10;;
20842;SDS011;26719;51.440;-2.574;2023-05-10T07:24:54;0.00;;;0.00;;
20842;SDS011;26719;51.440;-2.574;2023-05-10T07:27:21;0.00;;;0.00;;
20842;SDS011;26719;51.440;-2.574;2023-05-10T07:29:47;0.00;;;0.00;;
20842;SDS011;26719;51.440;-2.574;2023-05-10T07:32:13;0.00;;;0.00;;
20842;SDS011;26719;51.440;-2.574;2023-05-10T07:34:39;0.00;;;0.00;;
20842;SDS011;26719;51.440;-2.574;2023-05-10T07:37:05;0.00;;;0.00;;
20842;SDS011;26719;51.440;-2.574;2023-05-10T07:39:32;0.00;;;0.00;;
20842;SDS011;26719;51.440;-2.574;2023-05-10T07:41:58;0.00;;;0.00;;
20842;SDS011;26719;51.440;-2.574;2023-05-10T07:44:24;0.00;;;0.00;;
20842;SDS011;26719;51.440;-2.574;2023-05-10T07:46:50;0.00;;;0.00;;
20842;SDS011;26719;51.440;-2.574;2023-05-10T07:49:17;0.00;;;0.00;;
20842;SDS011;26719;51.440;-2.574;2023-05-10T07:51:43;0.10;;;0.10;;
20842;SDS011;26719;51.440;-2.574;2023-05-10T07:54:10;0.00;;;0.00;;
20842;SDS011;26719;51.440;-2.574;2023-05-10T07:56:36;0.00;;;0.00;;
20842;SDS011;26719;51.440;-2.574;2023-05-10T07:59:03;0.00;;;0.00;;
20842;SDS011;26719;51.440;-2.574;2023-05-10T08:01:31;0.00;;;0.00;;
20842;SDS011;26719;51.440;-2.574;2023-05-10T08:03:58;0.00;;;0.00;;
20842;SDS011;26719;51.440;-2.574;2023-05-10T08:06:24;0.00;;;0.00;;
20842;SDS011;26719;51.440;-2.574;2023-05-10T08:08:52;0.10;;;0.10;;
20842;SDS011;26719;51.440;-2.574;2023-05-10T08:11:19;0.00;;;0.00;;
20842;SDS011;26719;51.440;-2.574;2023-05-10T08:13:46;0.10;;;0.10;;
20842;SDS011;26719;51.440;-2.574;2023-05-10T08:16:12;0.00;;;0.00;;
20842;SDS011;26719;51.440;-2.574;2023-05-10T08:18:39;0.00;;;0.00;;
20842;SDS011;26719;51.440;-2.574;2023-05-10T08:21:05;0.00;;;0.00;;
20842;SDS011;26719;51.440;-2.574;2023-05-10T08:23:32;0.00;;;0.00;;
20842;SDS011;26719;51.440;-2.574;2023-05-10T08:25:58;0.00;;;0.00;;
20842;SDS011;26719;51.440;-2.574;2023-05-10T08:28:24;0.00;;;0.00;;
20842;SDS011;26719;51.440;-2.574;2023-05-10T08:30:50;0.00;;;0.00;;
20842;SDS011;26719;51.440;-2.574;2023-05-10T08:33:17;0.00;;;0.00;;
20842;SDS011;26719;51.440;-2.574;2023-05-10T08:35:44;0.00;;;0.00;;
20842;SDS011;26719;51.440;-2.574;2023-05-10T08:38:10;0.00;;;0.00;;
20842;SDS011;26719;51.440;-2.574;2023-05-10T08:40:42;0.00;;;0.00;;
20842;SDS011;26719;51.440;-2.574;2023-05-10T08:43:09;0.00;;;0.00;;
20842;SDS011;26719;51.440;-2.574;2023-05-10T08:45:37;0.00;;;0.00;;
20842;SDS011;26719;51.440;-2.574;2023-05-10T08:48:04;0.00;;;0.00;;
20842;SDS011;26719;51.440;-2.574;2023-05-10T08:50:31;0.00;;;0.00;;
20842;SDS011;26719;51.440;-2.574;2023-05-10T08:53:00;0.00;;;0.00;;
20842;SDS011;26719;51.440;-2.574;2023-05-10T08:55:27;0.00;;;0.00;;
20842;SDS011;26719;51.440;-2.574;2023-05-10T08:57:53;0.00;;;0.00;;
20842;SDS011;26719;51.440;-2.574;2023-05-10T09:00:19;0.00;;;0.00;;
20842;SDS011;26719;51.440;-2.574;2023-05-10T09:02:45;0.00;;;0.00;;
20842;SDS011;26719;51.440;-2.574;2023-05-10T09:05:12;0.00;;;0.00;;
20842;SDS011;26719;51.440;-2.574;2023-05-10T09:07:40;0.00;;;0.00;;
20842;SDS011;26719;51.440;-2.574;2023-05-10T09:10:06;0.00;;;0.00;;
20842;SDS011;26719;51.440;-2.574;2023-05-10T09:12:33;0.00;;;0.00;;
20842;SDS011;26719;51.440;-2.574;2023-05-10T09:15:00;0.00;;;0.00;;
20842;SDS011;26719;51.440;-2.574;2023-05-10T09:17:27;0.00;;;0.00;;
20842;SDS011;26719;51.440;-2.574;2023-05-10T09:19:58;0.00;;;0.00;;
20842;SDS011;26719;51.440;-2.574;2023-05-10T09:22:24;0.00;;;0.00;;
20842;SDS011;26719;51.440;-2.574;2023-05-10T09:25:03;0.07;;;0.07;;
20842;SDS011;26719;51.440;-2.574;2023-05-10T09:27:29;0.00;;;0.00;;
20842;SDS011;26719;51.440;-2.574;2023-05-10T09:29:58;0.00;;;0.00;;
20842;SDS011;26719;51.440;-2.574;2023-05-10T09:35:06;0.00;;;0.00;;
20842;SDS011;26719;51.440;-2.574;2023-05-10T09:37:33;0.00;;;0.00;;
20842;SDS011;26719;51.440;-2.574;2023-05-10T09:39:59;0.00;;;0.00;;
20842;SDS011;26719;51.440;-2.574;2023-05-10T09:42:25;0.00;;;0.00;;
20842;SDS011;26719;51.440;-2.574;2023-05-10T09:44:51;0.00;;;0.00;;
20842;SDS011;26719;51.440;-2.574;2023-05-10T09:47:17;0.00;;;0.00;;
20842;SDS011;26719;51.440;-2.574;2023-05-10T09:49:49;0.00;;;0.00;;
20842;SDS011;26719;51.440;-2.574;2023-05-10T09:52:22;0.00;;;0.00;;
20842;SDS011;26719;51.440;-2.574;2023-05-10T09:54:52;0.00;;;0.00;;
20842;SDS011;26719;51.440;-2.574;2023-05-10T09:57:22;0.00;;;0.00;;
20842;SDS011;26719;51.440;-2.574;2023-05-10T09:59:48;0.00;;;0.00;;
20842;SDS011;26719;51.440;-2.574;2023-05-10T10:02:15;0.00;;;0.00;;
20842;SDS011;26719;51.440;-2.574;2023-05-10T10:04:41;0.00;;;0.00;;
20842;SDS011;26719;51.440;-2.574;2023-05-10T10:07:08;0.00;;;0.00;;
20842;SDS011;26719;51.440;-2.574;2023-05-10T10:09:34;0.00;;;0.00;;
20842;SDS011;26719;51.440;-2.574;2023-05-10T10:12:01;0.00;;;0.00;;
20842;SDS011;26719;51.440;-2.574;2023-05-10T10:14:27;0.00;;;0.00;;
20842;SDS011;26719;51.440;-2.574;2023-05-10T10:16:54;0.00;;;0.00;;
20842;SDS011;26719;51.440;-2.574;2023-05-10T10:19:20;0.10;;;0.10;;
20842;SDS011;26719;51.440;-2.574;2023-05-10T10:21:47;0.10;;;0.10;;
20842;SDS011;26719;51.440;-2.574;2023-05-10T10:24:13;0.00;;;0.00;;
20842;SDS011;26719;51.440;-2.574;2023-05-10T10:26:39;0.00;;;0.00;;
20842;SDS011;26719;51.440;-2.574;2023-05-10T10:31:41;0.00;;;0.00;;
20842;SDS011;26719;51.440;-2.574;2023-05-10T10:34:11;0.00;;;0.00;;
20842;SDS011;26719;51.440;-2.574;2023-05-10T10:36:46;0.10;;;0.10;;
20842;SDS011;26719;51.440;-2.574;2023-05-10T10:39:12;0.03;;;0.03;;
20842;SDS011;26719;51.440;-2.574;2023-05-10T10:41:39;0.00;;;0.00;;
20842;SDS011;26719;51.440;-2.574;2023-05-10T10:55:07;0.00;;;0.00;;
20842;SDS011;26719;51.440;-2.574;2023-05-10T11:02:47;0.00;;;0.00;;
20842;SDS011;26719;51.440;-2.574;2023-05-10T11:08:06;0.00;;;0.00;;
20842;SDS011;26719;51.440;-2.574;2023-05-10T11:10:32;0.00;;;0.00;;
20842;SDS011;26719;51.440;-2.574;2023-05-10T11:12:59;0.00;;;0.00;;
20842;SDS011;26719;51.440;-2.574;2023-05-10T11:15:29;0.00;;;0.00;;
20842;SDS011;26719;51.440;-2.574;2023-05-10T11:17:55;0.00;;;0.00;;
20842;SDS011;26719;51.440;-2.574;2023-05-10T11:20:21;0.00;;;0.00;;
20842;SDS011;26719;51.440;-2.574;2023-05-10T11:22:53;0.00;;;0.00;;
20842;SDS011;26719;51.440;-2.574;2023-05-10T11:25:19;0.00;;;0.00;;
20842;SDS011;26719;51.440;-2.574;2023-05-10T11:27:47;0.00;;;0.00;;
20842;SDS011;26719;51.440;-2.574;2023-05-10T11:30:13;0.00;;;0.00;;
20842;SDS011;26719;51.440;-2.574;2023-05-10T11:32:40;0.10;;;0.10;;
20842;SDS011;26719;51.440;-2.574;2023-05-10T11:35:09;0.10;;;0.10;;
20842;SDS011;26719;51.440;-2.574;2023-05-10T11:37:36;0.00;;;0.00;;
20842;SDS011;26719;51.440;-2.574;2023-05-10T11:40:03;0.00;;;0.00;;
20842;SDS011;26719;51.440;-2.574;2023-05-10T11:42:29;0.10;;;0.10;;
20842;SDS011;26719;51.440;-2.574;2023-05-10T11:44:55;0.00;;;0.00;;
20842;SDS011;26719;51.440;-2.574;2023-05-10T11:47:22;0.00;;;0.00;;
20842;SDS011;26719;51.440;-2.574;2023-05-10T11:49:48;0.00;;;0.00;;
20842;SDS011;26719;51.440;-2.574;2023-05-10T11:52:14;0.10;;;0.10;;
20842;SDS011;26719;51.440;-2.574;2023-05-10T11:54:53;0.00;;;0.00;;
20842;SDS011;26719;51.440;-2.574;2023-05-10T11:57:20;0.10;;;0.10;;
20842;SDS011;26719;51.440;-2.574;2023-05-10T11:59:46;0.10;;;0.10;;
20842;SDS011;26719;51.440;-2.574;2023-05-10T12:02:13;0.10;;;0.10;;
20842;SDS011;26719;51.440;-2.574;2023-05-10T12:04:39;0.10;;;0.10;;
20842;SDS011;26719;51.440;-2.574;2023-05-10T12:07:06;0.03;;;0.03;;
20842;SDS011;26719;51.440;-2.574;2023-05-10T12:09:32;0.10;;;0.10;;
20842;SDS011;26719;51.440;-2.574;2023-05-10T12:11:58;0.00;;;0.00;;
20842;SDS011;26719;51.440;-2.574;2023-05-10T12:14:24;0.07;;;0.07;;
20842;SDS011;26719;51.440;-2.574;2023-05-10T12:16:50;0.00;;;0.00;;
20842;SDS011;26719;51.440;-2.574;2023-05-10T12:19:19;0.00;;;0.00;;
20842;SDS011;26719;51.440;-2.574;2023-05-10T12:21:46;0.00;;;0.00;;
20842;SDS011;26719;51.440;-2.574;2023-05-10T12:24:12;0.03;;;0.03;;
20842;SDS011;26719;51.440;-2.574;2023-05-10T12:26:41;0.10;;;0.10;;
20842;SDS011;26719;51.440;-2.574;2023-05-10T12:29:19;0.00;;;0.00;;
20842;SDS011;26719;51.440;-2.574;2023-05-10T12:31:52;0.10;;;0.10;;
20842;SDS011;26719;51.440;-2.574;2023-05-10T12:34:52;0.10;;;0.10;;
20842;SDS011;26719;51.440;-2.574;2023-05-10T12:37:11;0.10;;;0.10;;
20842;SDS011;26719;51.440;-2.574;2023-05-10T12:39:41;0.10;;;0.10;;
20842;SDS011;26719;51.440;-2.574;2023-05-10T12:42:07;0.10;;;0.10;;
20842;SDS011;26719;51.440;-2.574;2023-05-10T12:44:33;0.20;;;0.20;;
20842;SDS011;26719;51.440;-2.574;2023-05-10T12:46:59;0.10;;;0.10;;
20842;SDS011;26719;51.440;-2.574;2023-05-10T12:49:25;0.17;;;0.17;;
20842;SDS011;26719;51.440;-2.574;2023-05-10T12:51:51;0.10;;;0.10;;
20842;SDS011;26719;51.440;-2.574;2023-05-10T12:54:17;0.10;;;0.10;;
20842;SDS011;26719;51.440;-2.574;2023-05-10T12:56:43;0.10;;;0.10;;
20842;SDS011;26719;51.440;-2.574;2023-05-10T12:59:10;0.10;;;0.10;;
20842;SDS011;26719;51.440;-2.574;2023-05-10T13:01:36;0.13;;;0.13;;
20842;SDS011;26719;51.440;-2.574;2023-05-10T13:04:02;0.13;;;0.13;;
20842;SDS011;26719;51.440;-2.574;2023-05-10T13:06:28;0.10;;;0.10;;
20842;SDS011;26719;51.440;-2.574;2023-05-10T13:08:54;0.13;;;0.13;;
20842;SDS011;26719;51.440;-2.574;2023-05-10T13:11:20;0.10;;;0.10;;
20842;SDS011;26719;51.440;-2.574;2023-05-10T13:13:46;0.20;;;0.20;;
20842;SDS011;26719;51.440;-2.574;2023-05-10T13:16:12;0.20;;;0.20;;
20842;SDS011;26719;51.440;-2.574;2023-05-10T13:18:38;0.10;;;0.10;;
20842;SDS011;26719;51.440;-2.574;2023-05-10T13:21:04;0.20;;;0.20;;
20842;SDS011;26719;51.440;-2.574;2023-05-10T13:23:30;0.20;;;0.20;;
20842;SDS011;26719;51.440;-2.574;2023-05-10T13:25:56;0.20;;;0.20;;
20842;SDS011;26719;51.440;-2.574;2023-05-10T13:28:22;0.13;;;0.13;;
20842;SDS011;26719;51.440;-2.574;2023-05-10T13:30:50;0.10;;;0.10;;
20842;SDS011;26719;51.440;-2.574;2023-05-10T13:33:16;0.10;;;0.10;;
20842;SDS011;26719;51.440;-2.574;2023-05-10T13:35:42;0.10;;;0.10;;
20842;SDS011;26719;51.440;-2.574;2023-05-10T13:38:08;0.10;;;0.10;;
20842;SDS011;26719;51.440;-2.574;2023-05-10T13:40:35;0.10;;;0.10;;
20842;SDS011;26719;51.440;-2.574;2023-05-10T13:43:01;0.20;;;0.20;;
20842;SDS011;26719;51.440;-2.574;2023-05-10T13:45:27;0.20;;;0.20;;
20842;SDS011;26719;51.440;-2.574;2023-05-10T13:47:53;0.20;;;0.20;;
20842;SDS011;26719;51.440;-2.574;2023-05-10T13:50:19;0.20;;;0.20;;
20842;SDS011;26719;51.440;-2.574;2023-05-10T13:52:45;0.20;;;0.20;;
20842;SDS011;26719;51.440;-2.574;2023-05-10T13:55:12;0.20;;;0.20;;
20842;SDS011;26719;51.440;-2.574;2023-05-10T13:57:38;0.30;;;0.30;;
20842;SDS011;26719;51.440;-2.574;2023-05-10T14:00:04;0.20;;;0.20;;
20842;SDS011;26719;51.440;-2.574;2023-05-10T14:02:30;0.30;;;0.30;;
20842;SDS011;26719;51.440;-2.574;2023-05-10T14:04:56;0.30;;;0.30;;
20842;SDS011;26719;51.440;-2.574;2023-05-10T14:07:22;0.20;;;0.20;;
20842;SDS011;26719;51.440;-2.574;2023-05-10T14:09:48;0.20;;;0.20;;
20842;SDS011;26719;51.440;-2.574;2023-05-10T14:12:15;0.20;;;0.20;;
20842;SDS011;26719;51.440;-2.574;2023-05-10T14:14:41;0.20;;;0.20;;
20842;SDS011;26719;51.440;-2.574;2023-05-10T14:17:07;0.20;;;0.20;;
20842;SDS011;26719;51.440;-2.574;2023-05-10T14:19:33;0.20;;;0.20;;
20842;SDS011;26719;51.440;-2.574;2023-05-10T14:21:59;0.20;;;0.20;;
20842;SDS011;26719;51.440;-2.574;2023-05-10T14:24:25;0.20;;;0.20;;
20842;SDS011;26719;51.440;-2.574;2023-05-10T14:26:51;0.20;;;0.20;;
20842;SDS011;26719;51.440;-2.574;2023-05-10T14:29:20;0.20;;;0.20;;
20842;SDS011;26719;51.440;-2.574;2023-05-10T14:31:47;0.20;;;0.20;;
20842;SDS011;26719;51.440;-2.574;2023-05-10T14:34:13;0.20;;;0.20;;
20842;SDS011;26719;51.440;-2.574;2023-05-10T14:36:39;0.30;;;0.30;;
20842;SDS011;26719;51.440;-2.574;2023-05-10T14:39:05;0.30;;;0.30;;
20842;SDS011;26719;51.440;-2.574;2023-05-10T14:41:31;0.10;;;0.10;;
20842;SDS011;26719;51.440;-2.574;2023-05-10T14:43:57;0.20;;;0.20;;
20842;SDS011;26719;51.440;-2.574;2023-05-10T14:46:23;0.20;;;0.20;;
20842;SDS011;26719;51.440;-2.574;2023-05-10T14:48:49;0.20;;;0.20;;
20842;SDS011;26719;51.440;-2.574;2023-05-10T14:51:15;0.30;;;0.30;;
20842;SDS011;26719;51.440;-2.574;2023-05-10T14:53:42;0.30;;;0.30;;
20842;SDS011;26719;51.440;-2.574;2023-05-10T14:56:08;0.17;;;0.17;;
20842;SDS011;26719;51.440;-2.574;2023-05-10T14:58:34;0.20;;;0.20;;
20842;SDS011;26719;51.440;-2.574;2023-05-10T15:01:00;0.20;;;0.20;;
20842;SDS011;26719;51.440;-2.574;2023-05-10T15:03:26;0.20;;;0.20;;
20842;SDS011;26719;51.440;-2.574;2023-05-10T15:05:52;0.20;;;0.20;;
20842;SDS011;26719;51.440;-2.574;2023-05-10T15:08:18;0.20;;;0.20;;
20842;SDS011;26719;51.440;-2.574;2023-05-10T15:10:44;0.20;;;0.20;;